Airport Name : Campbell AAF

Other Name : Campbell AAF

ICAO : KHOP

IATA : HOP

FAA : HOP

Latitude : 36.668567

Longitude : -87.496183

Country : United States

Local Date and Time : 11/20/2018 4:26:00 PM

 

TAF (Terminal Aerodrome Forecast)

TAF AMD KHOP 202220Z 2022/2122 31009KT 9999 OVC021 620212 QNH3027INS BECMG 2102/2103 30006KT 9999 SKC QNH3023INS WND 24006KT AFT 2112 TX04/2022Z TNM03/2111Z

 

METAR (METeorological Aerodrome Report)

KHOP 202156Z 33006KT 10SM OVC021 04/M01 A3028 RMK AO2A SLP259 T00361014

KHOP 202056Z 31008KT 10SM OVC022 04/00 A3028 RMK AO2A SLP259 T00411005 55001

KHOP 201956Z AUTO 32009KT 10SM OVC022 05/00 A3028 RMK AO2 SLP259 T00460004

KHOP 201914Z AUTO 31008KT 10SM OVC021 05/01 A3028 RMK AO2 SLP259

KHOP 201908Z 34008KT 10SM OVC019 05/01 A3028 RMK AO2A SLP259

KHOP 201856Z 33009KT 10SM OVC020 05/01 A3028 RMK AO2A SLP259 T00490008